sensor_id;sensor_type;location;lat;lon;timestamp;P1;durP1;ratioP1;P2;durP2;ratioP2
6947;SDS011;3513;47.664;9.162;2024-03-23T00:56:03;12.73;;;5.40;;
6947;SDS011;3513;47.664;9.162;2024-03-23T00:58:29;9.67;;;5.90;;
6947;SDS011;3513;47.664;9.162;2024-03-23T01:00:55;15.63;;;6.23;;
6947;SDS011;3513;47.664;9.162;2024-03-23T01:03:21;10.40;;;5.80;;
6947;SDS011;3513;47.664;9.162;2024-03-23T01:05:46;17.00;;;7.30;;
6947;SDS011;3513;47.664;9.162;2024-03-23T01:08:13;21.20;;;10.47;;
6947;SDS011;3513;47.664;9.162;2024-03-23T01:10:39;27.90;;;8.87;;
6947;SDS011;3513;47.664;9.162;2024-03-23T01:13:05;21.00;;;10.10;;
6947;SDS011;3513;47.664;9.162;2024-03-23T01:15:30;28.23;;;9.57;;
6947;SDS011;3513;47.664;9.162;2024-03-23T01:17:56;18.60;;;9.60;;
6947;SDS011;3513;47.664;9.162;2024-03-23T01:20:21;20.43;;;10.33;;
6947;SDS011;3513;47.664;9.162;2024-03-23T01:22:47;18.50;;;8.87;;
6947;SDS011;3513;47.664;9.162;2024-03-23T01:25:12;20.30;;;9.37;;
6947;SDS011;3513;47.664;9.162;2024-03-23T01:27:38;17.97;;;9.17;;
6947;SDS011;3513;47.664;9.162;2024-03-23T01:30:03;25.83;;;11.10;;
6947;SDS011;3513;47.664;9.162;2024-03-23T01:32:29;48.40;;;18.03;;
6947;SDS011;3513;47.664;9.162;2024-03-23T01:34:55;27.57;;;12.10;;
6947;SDS011;3513;47.664;9.162;2024-03-23T01:37:20;34.10;;;13.30;;
6947;SDS011;3513;47.664;9.162;2024-03-23T01:39:46;30.33;;;12.40;;
6947;SDS011;3513;47.664;9.162;2024-03-23T01:42:12;22.50;;;9.77;;
6947;SDS011;3513;47.664;9.162;2024-03-23T01:44:37;28.80;;;8.70;;
6947;SDS011;3513;47.664;9.162;2024-03-23T01:47:03;20.50;;;8.13;;
6947;SDS011;3513;47.664;9.162;2024-03-23T01:49:29;14.67;;;8.47;;
6947;SDS011;3513;47.664;9.162;2024-03-23T01:51:54;10.00;;;7.00;;
6947;SDS011;3513;47.664;9.162;2024-03-23T01:54:20;15.87;;;8.50;;
6947;SDS011;3513;47.664;9.162;2024-03-23T01:56:46;14.20;;;8.00;;
6947;SDS011;3513;47.664;9.162;2024-03-23T01:59:13;17.80;;;9.67;;
6947;SDS011;3513;47.664;9.162;2024-03-23T02:01:39;24.43;;;10.80;;
6947;SDS011;3513;47.664;9.162;2024-03-23T02:04:04;15.73;;;8.57;;
6947;SDS011;3513;47.664;9.162;2024-03-23T02:06:30;20.20;;;9.00;;
6947;SDS011;3513;47.664;9.162;2024-03-23T02:08:56;9.80;;;6.90;;
6947;SDS011;3513;47.664;9.162;2024-03-23T02:11:21;16.63;;;7.90;;
6947;SDS011;3513;47.664;9.162;2024-03-23T02:13:47;14.20;;;7.90;;
6947;SDS011;3513;47.664;9.162;2024-03-23T02:16:13;21.07;;;8.37;;
6947;SDS011;3513;47.664;9.162;2024-03-23T02:18:38;12.83;;;8.10;;
6947;SDS011;3513;47.664;9.162;2024-03-23T02:21:04;13.83;;;6.60;;
6947;SDS011;3513;47.664;9.162;2024-03-23T02:23:30;16.93;;;7.33;;
6947;SDS011;3513;47.664;9.162;2024-03-23T02:25:55;13.40;;;6.27;;
6947;SDS011;3513;47.664;9.162;2024-03-23T02:28:21;9.53;;;5.90;;
6947;SDS011;3513;47.664;9.162;2024-03-23T02:30:50;8.00;;;5.87;;
6947;SDS011;3513;47.664;9.162;2024-03-23T02:33:15;10.67;;;5.63;;
6947;SDS011;3513;47.664;9.162;2024-03-23T02:35:41;10.73;;;6.03;;
6947;SDS011;3513;47.664;9.162;2024-03-23T02:38:08;10.20;;;5.70;;
6947;SDS011;3513;47.664;9.162;2024-03-23T02:40:34;9.80;;;5.47;;
6947;SDS011;3513;47.664;9.162;2024-03-23T02:42:59;8.53;;;5.37;;
6947;SDS011;3513;47.664;9.162;2024-03-23T02:45:25;8.60;;;4.93;;
6947;SDS011;3513;47.664;9.162;2024-03-23T02:47:50;12.23;;;5.73;;
6947;SDS011;3513;47.664;9.162;2024-03-23T02:50:17;17.27;;;5.20;;
6947;SDS011;3513;47.664;9.162;2024-03-23T02:52:46;10.27;;;5.80;;
6947;SDS011;3513;47.664;9.162;2024-03-23T02:55:12;7.87;;;4.40;;
6947;SDS011;3513;47.664;9.162;2024-03-23T02:57:38;7.43;;;5.30;;
6947;SDS011;3513;47.664;9.162;2024-03-23T03:00:04;8.10;;;5.17;;
6947;SDS011;3513;47.664;9.162;2024-03-23T03:02:31;6.00;;;5.33;;
6947;SDS011;3513;47.664;9.162;2024-03-23T03:04:57;7.27;;;5.13;;
6947;SDS011;3513;47.664;9.162;2024-03-23T03:07:22;8.30;;;4.40;;
6947;SDS011;3513;47.664;9.162;2024-03-23T03:09:48;15.20;;;5.63;;
6947;SDS011;3513;47.664;9.162;2024-03-23T03:12:14;9.57;;;5.10;;
6947;SDS011;3513;47.664;9.162;2024-03-23T03:14:39;8.20;;;5.63;;
6947;SDS011;3513;47.664;9.162;2024-03-23T03:17:05;6.90;;;5.20;;
6947;SDS011;3513;47.664;9.162;2024-03-23T03:19:30;11.07;;;5.50;;
6947;SDS011;3513;47.664;9.162;2024-03-23T03:21:57;9.03;;;5.00;;
6947;SDS011;3513;47.664;9.162;2024-03-23T03:24:22;7.57;;;5.47;;
6947;SDS011;3513;47.664;9.162;2024-03-23T03:26:48;9.93;;;4.87;;
6947;SDS011;3513;47.664;9.162;2024-03-23T03:29:14;9.17;;;5.80;;
6947;SDS011;3513;47.664;9.162;2024-03-23T03:31:40;7.57;;;5.57;;
6947;SDS011;3513;47.664;9.162;2024-03-23T03:34:06;6.30;;;4.80;;
6947;SDS011;3513;47.664;9.162;2024-03-23T03:36:31;8.13;;;5.03;;
6947;SDS011;3513;47.664;9.162;2024-03-23T03:38:57;9.30;;;5.07;;
6947;SDS011;3513;47.664;9.162;2024-03-23T03:41:22;10.37;;;5.80;;
6947;SDS011;3513;47.664;9.162;2024-03-23T03:43:48;11.03;;;5.57;;
6947;SDS011;3513;47.664;9.162;2024-03-23T03:46:13;7.33;;;6.00;;
6947;SDS011;3513;47.664;9.162;2024-03-23T03:48:39;8.03;;;5.47;;
6947;SDS011;3513;47.664;9.162;2024-03-23T03:51:05;7.13;;;5.33;;
6947;SDS011;3513;47.664;9.162;2024-03-23T03:53:30;12.97;;;4.90;;
6947;SDS011;3513;47.664;9.162;2024-03-23T03:55:56;7.67;;;5.87;;
6947;SDS011;3513;47.664;9.162;2024-03-23T03:58:25;9.97;;;6.20;;
6947;SDS011;3513;47.664;9.162;2024-03-23T04:00:50;10.83;;;5.50;;
6947;SDS011;3513;47.664;9.162;2024-03-23T04:03:16;7.53;;;5.07;;
6947;SDS011;3513;47.664;9.162;2024-03-23T04:05:41;11.93;;;5.87;;
6947;SDS011;3513;47.664;9.162;2024-03-23T04:08:07;11.73;;;6.00;;
6947;SDS011;3513;47.664;9.162;2024-03-23T04:10:33;12.50;;;6.20;;
6947;SDS011;3513;47.664;9.162;2024-03-23T04:12:58;8.23;;;5.87;;
6947;SDS011;3513;47.664;9.162;2024-03-23T04:15:24;6.73;;;5.67;;
6947;SDS011;3513;47.664;9.162;2024-03-23T04:17:49;11.10;;;6.27;;
6947;SDS011;3513;47.664;9.162;2024-03-23T04:20:15;7.90;;;5.47;;
6947;SDS011;3513;47.664;9.162;2024-03-23T04:22:42;6.33;;;5.63;;
6947;SDS011;3513;47.664;9.162;2024-03-23T04:25:10;8.33;;;5.60;;
6947;SDS011;3513;47.664;9.162;2024-03-23T04:27:36;13.13;;;7.53;;
6947;SDS011;3513;47.664;9.162;2024-03-23T04:30:03;13.53;;;8.43;;
6947;SDS011;3513;47.664;9.162;2024-03-23T04:32:34;10.87;;;6.60;;
6947;SDS011;3513;47.664;9.162;2024-03-23T04:35:00;19.03;;;7.20;;
6947;SDS011;3513;47.664;9.162;2024-03-23T04:37:25;13.97;;;6.23;;
6947;SDS011;3513;47.664;9.162;2024-03-23T04:39:51;9.50;;;6.17;;
6947;SDS011;3513;47.664;9.162;2024-03-23T04:42:16;12.00;;;6.13;;
6947;SDS011;3513;47.664;9.162;2024-03-23T04:44:42;8.50;;;6.40;;
6947;SDS011;3513;47.664;9.162;2024-03-23T04:47:08;6.23;;;5.50;;
6947;SDS011;3513;47.664;9.162;2024-03-23T04:49:33;6.97;;;5.07;;
6947;SDS011;3513;47.664;9.162;2024-03-23T04:52:01;7.67;;;4.70;;
6947;SDS011;3513;47.664;9.162;2024-03-23T04:54:30;9.40;;;5.13;;
6947;SDS011;3513;47.664;9.162;2024-03-23T04:56:57;7.60;;;4.70;;
6947;SDS011;3513;47.664;9.162;2024-03-23T04:59:23;9.00;;;5.47;;
6947;SDS011;3513;47.664;9.162;2024-03-23T05:01:48;8.83;;;5.13;;
6947;SDS011;3513;47.664;9.162;2024-03-23T05:04:14;10.40;;;5.93;;
6947;SDS011;3513;47.664;9.162;2024-03-23T05:06:39;6.80;;;4.63;;
6947;SDS011;3513;47.664;9.162;2024-03-23T05:09:05;7.50;;;5.47;;
6947;SDS011;3513;47.664;9.162;2024-03-23T05:11:36;6.83;;;4.13;;
6947;SDS011;3513;47.664;9.162;2024-03-23T05:14:03;4.33;;;3.93;;
6947;SDS011;3513;47.664;9.162;2024-03-23T05:16:28;8.43;;;3.90;;
6947;SDS011;3513;47.664;9.162;2024-03-23T05:18:54;8.13;;;4.70;;
6947;SDS011;3513;47.664;9.162;2024-03-23T05:21:20;17.97;;;5.43;;
6947;SDS011;3513;47.664;9.162;2024-03-23T05:23:45;5.87;;;3.50;;
6947;SDS011;3513;47.664;9.162;2024-03-23T05:26:11;7.57;;;4.67;;
6947;SDS011;3513;47.664;9.162;2024-03-23T05:28:36;12.20;;;5.23;;
6947;SDS011;3513;47.664;9.162;2024-03-23T05:31:02;10.77;;;4.97;;
6947;SDS011;3513;47.664;9.162;2024-03-23T05:33:27;5.93;;;3.20;;
6947;SDS011;3513;47.664;9.162;2024-03-23T05:36:02;10.70;;;4.40;;
6947;SDS011;3513;47.664;9.162;2024-03-23T05:38:28;4.17;;;3.37;;
6947;SDS011;3513;47.664;9.162;2024-03-23T05:40:54;9.93;;;4.03;;
6947;SDS011;3513;47.664;9.162;2024-03-23T05:43:21;11.60;;;4.30;;
6947;SDS011;3513;47.664;9.162;2024-03-23T05:45:53;8.90;;;4.17;;
6947;SDS011;3513;47.664;9.162;2024-03-23T05:48:22;9.63;;;3.27;;
6947;SDS011;3513;47.664;9.162;2024-03-23T05:50:49;5.53;;;2.50;;
6947;SDS011;3513;47.664;9.162;2024-03-23T05:53:15;8.43;;;3.10;;
6947;SDS011;3513;47.664;9.162;2024-03-23T05:55:41;2.93;;;2.40;;
6947;SDS011;3513;47.664;9.162;2024-03-23T05:58:06;5.90;;;2.60;;
6947;SDS011;3513;47.664;9.162;2024-03-23T06:00:32;9.40;;;3.70;;
6947;SDS011;3513;47.664;9.162;2024-03-23T06:02:58;5.80;;;3.20;;
6947;SDS011;3513;47.664;9.162;2024-03-23T06:05:23;11.20;;;3.93;;
6947;SDS011;3513;47.664;9.162;2024-03-23T06:07:49;4.10;;;2.90;;
6947;SDS011;3513;47.664;9.162;2024-03-23T06:10:15;4.30;;;2.80;;
6947;SDS011;3513;47.664;9.162;2024-03-23T06:12:40;13.23;;;3.80;;
6947;SDS011;3513;47.664;9.162;2024-03-23T06:15:06;7.33;;;3.07;;
6947;SDS011;3513;47.664;9.162;2024-03-23T06:17:35;10.63;;;3.90;;
6947;SDS011;3513;47.664;9.162;2024-03-23T06:20:01;2.90;;;2.63;;
6947;SDS011;3513;47.664;9.162;2024-03-23T06:22:27;5.40;;;3.60;;
6947;SDS011;3513;47.664;9.162;2024-03-23T06:24:52;3.70;;;2.77;;
6947;SDS011;3513;47.664;9.162;2024-03-23T06:27:18;6.57;;;3.23;;
6947;SDS011;3513;47.664;9.162;2024-03-23T06:29:44;6.63;;;3.93;;
6947;SDS011;3513;47.664;9.162;2024-03-23T06:32:09;5.37;;;3.30;;
6947;SDS011;3513;47.664;9.162;2024-03-23T06:34:35;8.50;;;5.07;;
6947;SDS011;3513;47.664;9.162;2024-03-23T06:37:00;4.40;;;3.83;;
6947;SDS011;3513;47.664;9.162;2024-03-23T06:39:26;5.70;;;4.50;;
6947;SDS011;3513;47.664;9.162;2024-03-23T06:41:52;10.17;;;4.30;;
6947;SDS011;3513;47.664;9.162;2024-03-23T06:44:18;6.53;;;3.87;;
6947;SDS011;3513;47.664;9.162;2024-03-23T06:46:45;5.70;;;4.13;;
6947;SDS011;3513;47.664;9.162;2024-03-23T06:49:10;3.70;;;3.30;;
6947;SDS011;3513;47.664;9.162;2024-03-23T06:51:36;13.90;;;4.40;;
6947;SDS011;3513;47.664;9.162;2024-03-23T06:54:03;8.00;;;4.63;;
6947;SDS011;3513;47.664;9.162;2024-03-23T06:56:29;3.50;;;3.20;;
6947;SDS011;3513;47.664;9.162;2024-03-23T06:58:54;6.87;;;3.93;;
6947;SDS011;3513;47.664;9.162;2024-03-23T07:01:21;7.47;;;4.93;;
6947;SDS011;3513;47.664;9.162;2024-03-23T07:03:46;5.97;;;5.37;;
6947;SDS011;3513;47.664;9.162;2024-03-23T07:06:12;6.67;;;4.40;;
6947;SDS011;3513;47.664;9.162;2024-03-23T07:08:37;6.13;;;4.60;;
6947;SDS011;3513;47.664;9.162;2024-03-23T07:11:03;13.30;;;5.10;;
6947;SDS011;3513;47.664;9.162;2024-03-23T07:13:29;4.50;;;3.80;;
6947;SDS011;3513;47.664;9.162;2024-03-23T07:15:55;6.63;;;3.50;;
6947;SDS011;3513;47.664;9.162;2024-03-23T07:18:22;9.13;;;4.70;;
6947;SDS011;3513;47.664;9.162;2024-03-23T07:20:54;6.10;;;4.73;;
6947;SDS011;3513;47.664;9.162;2024-03-23T07:23:21;11.60;;;4.27;;
6947;SDS011;3513;47.664;9.162;2024-03-23T07:26:03;7.10;;;4.93;;
6947;SDS011;3513;47.664;9.162;2024-03-23T07:28:30;8.40;;;4.37;;
6947;SDS011;3513;47.664;9.162;2024-03-23T07:31:06;4.37;;;3.90;;
6947;SDS011;3513;47.664;9.162;2024-03-23T07:33:34;8.30;;;4.50;;
6947;SDS011;3513;47.664;9.162;2024-03-23T07:36:01;11.37;;;4.83;;
6947;SDS011;3513;47.664;9.162;2024-03-23T07:38:27;6.50;;;5.13;;
6947;SDS011;3513;47.664;9.162;2024-03-23T07:41:02;6.87;;;4.90;;
6947;SDS011;3513;47.664;9.162;2024-03-23T07:43:31;7.90;;;5.30;;
6947;SDS011;3513;47.664;9.162;2024-03-23T07:45:57;7.67;;;5.20;;
6947;SDS011;3513;47.664;9.162;2024-03-23T07:48:23;7.97;;;5.17;;
6947;SDS011;3513;47.664;9.162;2024-03-23T07:53:27;7.40;;;4.97;;
6947;SDS011;3513;47.664;9.162;2024-03-23T07:58:23;10.70;;;5.47;;
6947;SDS011;3513;47.664;9.162;2024-03-23T08:00:49;5.20;;;4.20;;
6947;SDS011;3513;47.664;9.162;2024-03-23T08:03:15;9.40;;;4.93;;
6947;SDS011;3513;47.664;9.162;2024-03-23T08:05:40;6.93;;;4.67;;
6947;SDS011;3513;47.664;9.162;2024-03-23T08:08:06;6.07;;;4.30;;
6947;SDS011;3513;47.664;9.162;2024-03-23T08:10:32;5.87;;;4.83;;
6947;SDS011;3513;47.664;9.162;2024-03-23T08:12:57;5.33;;;4.33;;
6947;SDS011;3513;47.664;9.162;2024-03-23T08:15:23;6.40;;;4.67;;
6947;SDS011;3513;47.664;9.162;2024-03-23T08:17:49;8.03;;;5.03;;
6947;SDS011;3513;47.664;9.162;2024-03-23T08:20:15;9.10;;;5.20;;
6947;SDS011;3513;47.664;9.162;2024-03-23T08:22:40;11.20;;;5.33;;
6947;SDS011;3513;47.664;9.162;2024-03-23T08:25:06;6.77;;;5.17;;
6947;SDS011;3513;47.664;9.162;2024-03-23T08:27:31;7.80;;;3.40;;
6947;SDS011;3513;47.664;9.162;2024-03-23T08:29:58;0.87;;;0.80;;
6947;SDS011;3513;47.664;9.162;2024-03-23T08:32:23;0.93;;;0.60;;
6947;SDS011;3513;47.664;9.162;2024-03-23T08:34:49;0.60;;;0.40;;
6947;SDS011;3513;47.664;9.162;2024-03-23T08:37:15;0.80;;;0.53;;
6947;SDS011;3513;47.664;9.162;2024-03-23T08:39:43;6.43;;;0.77;;
6947;SDS011;3513;47.664;9.162;2024-03-23T08:42:08;0.80;;;0.50;;
6947;SDS011;3513;47.664;9.162;2024-03-23T08:44:34;3.87;;;0.90;;
6947;SDS011;3513;47.664;9.162;2024-03-23T08:47:00;0.80;;;0.50;;
6947;SDS011;3513;47.664;9.162;2024-03-23T08:49:26;1.13;;;0.50;;
6947;SDS011;3513;47.664;9.162;2024-03-23T08:51:52;0.70;;;0.50;;
6947;SDS011;3513;47.664;9.162;2024-03-23T08:54:17;1.57;;;0.60;;
6947;SDS011;3513;47.664;9.162;2024-03-23T08:56:45;0.60;;;0.50;;
6947;SDS011;3513;47.664;9.162;2024-03-23T08:59:11;0.70;;;0.50;;
6947;SDS011;3513;47.664;9.162;2024-03-23T09:01:36;2.53;;;0.50;;
6947;SDS011;3513;47.664;9.162;2024-03-23T09:04:03;0.83;;;0.77;;
6947;SDS011;3513;47.664;9.162;2024-03-23T09:06:29;1.60;;;0.63;;
6947;SDS011;3513;47.664;9.162;2024-03-23T09:08:54;0.93;;;0.60;;
6947;SDS011;3513;47.664;9.162;2024-03-23T09:11:20;0.80;;;0.70;;
6947;SDS011;3513;47.664;9.162;2024-03-23T09:13:46;0.60;;;0.50;;
6947;SDS011;3513;47.664;9.162;2024-03-23T09:16:11;0.73;;;0.53;;
6947;SDS011;3513;47.664;9.162;2024-03-23T09:18:38;1.10;;;0.70;;
6947;SDS011;3513;47.664;9.162;2024-03-23T09:21:04;2.00;;;0.60;;
6947;SDS011;3513;47.664;9.162;2024-03-23T09:23:36;3.30;;;0.67;;
6947;SDS011;3513;47.664;9.162;2024-03-23T09:26:04;1.93;;;0.87;;
6947;SDS011;3513;47.664;9.162;2024-03-23T09:28:32;0.80;;;0.57;;
6947;SDS011;3513;47.664;9.162;2024-03-23T09:31:02;1.00;;;0.60;;
6947;SDS011;3513;47.664;9.162;2024-03-23T09:33:32;0.60;;;0.50;;
6947;SDS011;3513;47.664;9.162;2024-03-23T09:35:59;0.97;;;0.80;;
6947;SDS011;3513;47.664;9.162;2024-03-23T09:38:28;1.63;;;0.50;;
6947;SDS011;3513;47.664;9.162;2024-03-23T09:40:54;0.80;;;0.50;;
6947;SDS011;3513;47.664;9.162;2024-03-23T09:43:19;0.90;;;0.70;;
6947;SDS011;3513;47.664;9.162;2024-03-23T09:45:46;1.00;;;0.60;;
6947;SDS011;3513;47.664;9.162;2024-03-23T09:48:12;0.70;;;0.50;;
6947;SDS011;3513;47.664;9.162;2024-03-23T09:50:38;0.90;;;0.50;;
6947;SDS011;3513;47.664;9.162;2024-03-23T09:53:06;0.70;;;0.57;;
6947;SDS011;3513;47.664;9.162;2024-03-23T09:55:32;0.80;;;0.50;;
6947;SDS011;3513;47.664;9.162;2024-03-23T09:57:58;1.33;;;0.60;;
6947;SDS011;3513;47.664;9.162;2024-03-23T10:00:24;5.60;;;0.67;;
6947;SDS011;3513;47.664;9.162;2024-03-23T10:02:50;5.90;;;0.83;;
6947;SDS011;3513;47.664;9.162;2024-03-23T10:05:19;5.00;;;0.70;;
6947;SDS011;3513;47.664;9.162;2024-03-23T10:07:49;2.73;;;0.70;;
6947;SDS011;3513;47.664;9.162;2024-03-23T10:10:16;1.40;;;0.83;;
6947;SDS011;3513;47.664;9.162;2024-03-23T10:12:45;0.67;;;0.50;;
6947;SDS011;3513;47.664;9.162;2024-03-23T10:15:17;159.60;;;7.87;;
6947;SDS011;3513;47.664;9.162;2024-03-23T10:17:47;0.70;;;0.50;;
6947;SDS011;3513;47.664;9.162;2024-03-23T10:20:13;1.80;;;1.03;;
6947;SDS011;3513;47.664;9.162;2024-03-23T10:22:45;0.70;;;0.60;;
6947;SDS011;3513;47.664;9.162;2024-03-23T10:25:11;4.87;;;2.30;;
6947;SDS011;3513;47.664;9.162;2024-03-23T10:27:37;4.73;;;1.33;;
6947;SDS011;3513;47.664;9.162;2024-03-23T10:30:10;2.20;;;1.00;;
6947;SDS011;3513;47.664;9.162;2024-03-23T10:32:42;2.30;;;0.73;;
6947;SDS011;3513;47.664;9.162;2024-03-23T10:35:14;0.90;;;0.67;;
6947;SDS011;3513;47.664;9.162;2024-03-23T10:37:44;1.90;;;0.90;;
6947;SDS011;3513;47.664;9.162;2024-03-23T10:40:10;1.30;;;0.83;;
6947;SDS011;3513;47.664;9.162;2024-03-23T10:42:37;2.80;;;1.00;;
6947;SDS011;3513;47.664;9.162;2024-03-23T10:45:04;2.70;;;0.83;;
6947;SDS011;3513;47.664;9.162;2024-03-23T10:47:30;3.63;;;1.20;;
6947;SDS011;3513;47.664;9.162;2024-03-23T10:49:57;6.87;;;1.83;;
6947;SDS011;3513;47.664;9.162;2024-03-23T10:52:22;5.70;;;1.47;;
6947;SDS011;3513;47.664;9.162;2024-03-23T10:54:49;3.10;;;1.43;;
6947;SDS011;3513;47.664;9.162;2024-03-23T10:57:20;10.13;;;2.90;;
6947;SDS011;3513;47.664;9.162;2024-03-23T10:59:48;5.03;;;1.73;;
6947;SDS011;3513;47.664;9.162;2024-03-23T11:02:21;9.70;;;2.00;;
6947;SDS011;3513;47.664;9.162;2024-03-23T11:04:47;3.10;;;2.33;;
6947;SDS011;3513;47.664;9.162;2024-03-23T11:09:55;6.90;;;2.20;;
6947;SDS011;3513;47.664;9.162;2024-03-23T11:17:28;8.23;;;2.20;;
6947;SDS011;3513;47.664;9.162;2024-03-23T11:22:45;9.23;;;1.90;;
6947;SDS011;3513;47.664;9.162;2024-03-23T11:25:24;8.87;;;2.00;;
6947;SDS011;3513;47.664;9.162;2024-03-23T11:27:52;11.63;;;2.93;;
6947;SDS011;3513;47.664;9.162;2024-03-23T11:30:26;9.13;;;2.40;;
6947;SDS011;3513;47.664;9.162;2024-03-23T11:32:56;7.80;;;1.50;;
6947;SDS011;3513;47.664;9.162;2024-03-23T11:38:03;8.47;;;2.10;;
6947;SDS011;3513;47.664;9.162;2024-03-23T11:40:40;7.60;;;2.10;;
6947;SDS011;3513;47.664;9.162;2024-03-23T11:43:06;10.03;;;2.70;;
6947;SDS011;3513;47.664;9.162;2024-03-23T11:45:34;6.17;;;2.97;;
6947;SDS011;3513;47.664;9.162;2024-03-23T11:50:32;6.63;;;2.30;;
6947;SDS011;3513;47.664;9.162;2024-03-23T11:53:15;13.37;;;2.80;;
6947;SDS011;3513;47.664;9.162;2024-03-23T11:56:03;6.57;;;1.87;;
6947;SDS011;3513;47.664;9.162;2024-03-23T11:58:28;4.10;;;1.50;;
6947;SDS011;3513;47.664;9.162;2024-03-23T12:00:57;12.43;;;2.60;;
6947;SDS011;3513;47.664;9.162;2024-03-23T12:03:24;4.27;;;1.90;;
6947;SDS011;3513;47.664;9.162;2024-03-23T12:05:54;8.60;;;2.70;;
6947;SDS011;3513;47.664;9.162;2024-03-23T12:08:24;3.77;;;1.33;;
6947;SDS011;3513;47.664;9.162;2024-03-23T12:13:36;13.00;;;2.90;;
6947;SDS011;3513;47.664;9.162;2024-03-23T12:16:11;3.73;;;1.77;;
6947;SDS011;3513;47.664;9.162;2024-03-23T12:18:39;15.03;;;2.60;;
6947;SDS011;3513;47.664;9.162;2024-03-23T12:21:08;20.60;;;2.50;;
6947;SDS011;3513;47.664;9.162;2024-03-23T12:23:34;12.00;;;2.50;;
6947;SDS011;3513;47.664;9.162;2024-03-23T12:26:00;6.10;;;2.40;;
6947;SDS011;3513;47.664;9.162;2024-03-23T12:28:26;9.80;;;2.30;;
6947;SDS011;3513;47.664;9.162;2024-03-23T12:30:52;5.53;;;2.40;;
6947;SDS011;3513;47.664;9.162;2024-03-23T12:33:19;5.90;;;2.50;;
6947;SDS011;3513;47.664;9.162;2024-03-23T12:35:45;8.43;;;1.83;;
6947;SDS011;3513;47.664;9.162;2024-03-23T12:38:10;5.50;;;1.90;;
6947;SDS011;3513;47.664;9.162;2024-03-23T12:40:36;10.50;;;2.00;;
6947;SDS011;3513;47.664;9.162;2024-03-23T12:43:01;6.47;;;1.50;;
6947;SDS011;3513;47.664;9.162;2024-03-23T12:45:27;9.00;;;1.83;;
6947;SDS011;3513;47.664;9.162;2024-03-23T12:47:52;6.47;;;2.10;;
6947;SDS011;3513;47.664;9.162;2024-03-23T12:50:19;8.43;;;1.80;;
6947;SDS011;3513;47.664;9.162;2024-03-23T12:52:45;6.83;;;1.90;;
6947;SDS011;3513;47.664;9.162;2024-03-23T12:55:10;10.10;;;1.50;;
6947;SDS011;3513;47.664;9.162;2024-03-23T12:57:36;1.93;;;0.70;;
6947;SDS011;3513;47.664;9.162;2024-03-23T13:00:02;3.03;;;1.00;;
6947;SDS011;3513;47.664;9.162;2024-03-23T13:02:29;2.17;;;0.80;;
6947;SDS011;3513;47.664;9.162;2024-03-23T13:04:54;2.30;;;0.87;;
6947;SDS011;3513;47.664;9.162;2024-03-23T13:07:21;2.10;;;0.90;;
6947;SDS011;3513;47.664;9.162;2024-03-23T13:09:49;1.90;;;0.67;;
6947;SDS011;3513;47.664;9.162;2024-03-23T13:12:16;2.10;;;1.10;;
6947;SDS011;3513;47.664;9.162;2024-03-23T13:14:43;3.13;;;1.17;;
6947;SDS011;3513;47.664;9.162;2024-03-23T13:17:09;4.20;;;1.37;;
6947;SDS011;3513;47.664;9.162;2024-03-23T13:19:35;3.73;;;0.90;;
6947;SDS011;3513;47.664;9.162;2024-03-23T13:22:00;6.00;;;1.20;;
6947;SDS011;3513;47.664;9.162;2024-03-23T13:24:26;4.37;;;1.10;;
6947;SDS011;3513;47.664;9.162;2024-03-23T13:26:53;3.67;;;1.17;;
6947;SDS011;3513;47.664;9.162;2024-03-23T13:29:19;5.23;;;1.10;;
6947;SDS011;3513;47.664;9.162;2024-03-23T13:31:45;2.73;;;1.30;;
6947;SDS011;3513;47.664;9.162;2024-03-23T13:34:12;6.20;;;1.50;;
6947;SDS011;3513;47.664;9.162;2024-03-23T13:36:44;2.00;;;0.93;;
6947;SDS011;3513;47.664;9.162;2024-03-23T13:39:10;8.80;;;1.30;;
6947;SDS011;3513;47.664;9.162;2024-03-23T13:41:39;12.10;;;1.50;;
6947;SDS011;3513;47.664;9.162;2024-03-23T13:44:09;7.33;;;1.60;;
6947;SDS011;3513;47.664;9.162;2024-03-23T13:46:39;5.60;;;1.13;;
6947;SDS011;3513;47.664;9.162;2024-03-23T13:49:07;4.83;;;1.10;;
6947;SDS011;3513;47.664;9.162;2024-03-23T13:51:37;5.53;;;1.40;;
6947;SDS011;3513;47.664;9.162;2024-03-23T13:54:03;8.23;;;1.63;;
6947;SDS011;3513;47.664;9.162;2024-03-23T13:56:28;2.07;;;1.20;;
6947;SDS011;3513;47.664;9.162;2024-03-23T13:58:57;2.83;;;1.33;;
6947;SDS011;3513;47.664;9.162;2024-03-23T14:01:23;4.40;;;1.63;;
6947;SDS011;3513;47.664;9.162;2024-03-23T14:03:49;2.03;;;0.93;;
6947;SDS011;3513;47.664;9.162;2024-03-23T14:06:15;8.40;;;1.90;;
6947;SDS011;3513;47.664;9.162;2024-03-23T14:08:41;8.07;;;1.50;;
6947;SDS011;3513;47.664;9.162;2024-03-23T14:11:07;4.37;;;1.73;;
6947;SDS011;3513;47.664;9.162;2024-03-23T14:13:34;18.30;;;1.80;;
6947;SDS011;3513;47.664;9.162;2024-03-23T14:16:00;3.27;;;1.30;;
6947;SDS011;3513;47.664;9.162;2024-03-23T14:18:26;9.03;;;1.50;;
6947;SDS011;3513;47.664;9.162;2024-03-23T14:20:55;3.40;;;1.60;;
6947;SDS011;3513;47.664;9.162;2024-03-23T14:23:28;8.87;;;1.90;;
6947;SDS011;3513;47.664;9.162;2024-03-23T14:25:55;6.20;;;1.73;;
6947;SDS011;3513;47.664;9.162;2024-03-23T14:28:21;3.40;;;1.50;;
6947;SDS011;3513;47.664;9.162;2024-03-23T14:30:47;4.97;;;1.90;;
6947;SDS011;3513;47.664;9.162;2024-03-23T14:33:14;5.80;;;1.20;;
6947;SDS011;3513;47.664;9.162;2024-03-23T14:35:40;7.73;;;1.80;;
6947;SDS011;3513;47.664;9.162;2024-03-23T14:38:06;7.00;;;1.17;;
6947;SDS011;3513;47.664;9.162;2024-03-23T14:40:32;5.03;;;1.60;;
6947;SDS011;3513;47.664;9.162;2024-03-23T14:42:58;8.67;;;2.03;;
6947;SDS011;3513;47.664;9.162;2024-03-23T14:45:23;5.73;;;1.83;;
6947;SDS011;3513;47.664;9.162;2024-03-23T14:47:52;6.20;;;1.70;;
6947;SDS011;3513;47.664;9.162;2024-03-23T14:50:18;7.00;;;1.97;;
6947;SDS011;3513;47.664;9.162;2024-03-23T14:52:44;6.30;;;1.40;;
6947;SDS011;3513;47.664;9.162;2024-03-23T14:55:10;7.73;;;1.77;;
6947;SDS011;3513;47.664;9.162;2024-03-23T14:57:39;6.30;;;1.30;;
6947;SDS011;3513;47.664;9.162;2024-03-23T15:00:08;2.50;;;1.00;;
6947;SDS011;3513;47.664;9.162;2024-03-23T15:02:39;12.30;;;2.00;;
6947;SDS011;3513;47.664;9.162;2024-03-23T15:05:05;4.73;;;1.40;;
6947;SDS011;3513;47.664;9.162;2024-03-23T15:07:34;9.50;;;1.87;;
6947;SDS011;3513;47.664;9.162;2024-03-23T15:10:01;3.60;;;1.70;;
6947;SDS011;3513;47.664;9.162;2024-03-23T15:12:26;8.17;;;1.60;;
6947;SDS011;3513;47.664;9.162;2024-03-23T15:14:52;8.00;;;2.00;;
6947;SDS011;3513;47.664;9.162;2024-03-23T15:17:17;10.50;;;1.70;;
6947;SDS011;3513;47.664;9.162;2024-03-23T15:19:43;7.43;;;1.23;;
6947;SDS011;3513;47.664;9.162;2024-03-23T15:22:09;4.90;;;1.30;;
6947;SDS011;3513;47.664;9.162;2024-03-23T15:24:35;8.00;;;1.27;;
6947;SDS011;3513;47.664;9.162;2024-03-23T15:27:02;5.43;;;1.97;;
6947;SDS011;3513;47.664;9.162;2024-03-23T15:29:28;5.50;;;1.53;;
6947;SDS011;3513;47.664;9.162;2024-03-23T15:31:53;6.20;;;2.17;;
6947;SDS011;3513;47.664;9.162;2024-03-23T15:34:19;4.70;;;1.57;;
6947;SDS011;3513;47.664;9.162;2024-03-23T15:36:47;8.93;;;1.73;;
6947;SDS011;3513;47.664;9.162;2024-03-23T15:39:18;8.50;;;1.50;;
6947;SDS011;3513;47.664;9.162;2024-03-23T15:41:46;8.37;;;1.87;;
6947;SDS011;3513;47.664;9.162;2024-03-23T15:44:12;3.47;;;1.10;;
6947;SDS011;3513;47.664;9.162;2024-03-23T15:46:38;4.37;;;1.30;;
6947;SDS011;3513;47.664;9.162;2024-03-23T15:49:04;6.60;;;1.40;;
6947;SDS011;3513;47.664;9.162;2024-03-23T15:51:30;4.80;;;1.37;;
6947;SDS011;3513;47.664;9.162;2024-03-23T15:53:58;10.30;;;2.23;;
6947;SDS011;3513;47.664;9.162;2024-03-23T15:56:24;7.20;;;1.57;;
6947;SDS011;3513;47.664;9.162;2024-03-23T15:58:50;6.23;;;2.40;;
6947;SDS011;3513;47.664;9.162;2024-03-23T16:01:15;6.03;;;1.20;;
6947;SDS011;3513;47.664;9.162;2024-03-23T16:03:41;9.20;;;1.57;;
6947;SDS011;3513;47.664;9.162;2024-03-23T16:06:07;3.63;;;1.67;;
6947;SDS011;3513;47.664;9.162;2024-03-23T16:08:33;7.63;;;1.43;;
6947;SDS011;3513;47.664;9.162;2024-03-23T16:11:03;3.00;;;1.03;;
6947;SDS011;3513;47.664;9.162;2024-03-23T16:13:30;6.23;;;1.83;;
6947;SDS011;3513;47.664;9.162;2024-03-23T16:15:59;9.70;;;1.70;;
6947;SDS011;3513;47.664;9.162;2024-03-23T16:18:26;4.30;;;1.30;;
6947;SDS011;3513;47.664;9.162;2024-03-23T16:20:58;3.90;;;1.83;;
6947;SDS011;3513;47.664;9.162;2024-03-23T16:23:25;7.03;;;1.30;;
6947;SDS011;3513;47.664;9.162;2024-03-23T16:25:52;10.63;;;1.30;;
6947;SDS011;3513;47.664;9.162;2024-03-23T16:28:30;8.07;;;1.57;;